Time;durP1;ratioP1;P1;durP2;ratioP2;P2;SDS_P1;SDS_P2;PMS_P1;PMS_P2;Temp;Humidity;BMP_temperature;BMP_pressure;BME280_temperature;BME280_humidity;BME280_pressure;Samples;Min_cycle;Max_cycle;Signal;HPM_P1;HPM_P2
2021/05/05 00:00:28;;;;;;;0.50;0.30;;;12.50;69.40;;;;;;2361969;53;20935;-65
2021/05/05 00:03:06;;;;;;;0.73;0.40;;;12.40;69.40;;;;;;2358995;53;20953;-65
2021/05/05 00:05:33;;;;;;;1.23;0.30;;;12.40;69.40;;;;;;2591232;53;21079;-64
2021/05/05 00:08:00;;;;;;;0.70;0.30;;;12.30;69.40;;;;;;2354072;53;20954;-65
2021/05/05 00:10:43;;;;;;;0.52;0.20;;;12.30;69.70;;;;;;2351466;54;20934;-64
2021/05/05 00:13:15;;;;;;;1.00;0.50;;;12.30;69.80;;;;;;2367421;53;20919;-65
2021/05/05 00:15:42;;;;;;;1.17;0.57;;;12.30;69.90;;;;;;2373598;53;21872;-65
2021/05/05 00:18:08;;;;;;;1.25;0.40;;;12.30;70.00;;;;;;2346532;54;20942;-65
2021/05/05 00:20:34;;;;;;;1.77;0.57;;;12.20;70.00;;;;;;2398736;52;20999;-65
2021/05/05 00:23:01;;;;;;;1.20;0.40;;;12.30;70.10;;;;;;2417131;53;20990;-65
2021/05/05 00:25:28;;;;;;;1.37;0.43;;;12.20;70.10;;;;;;2360278;53;20999;-64
2021/05/05 00:27:54;;;;;;;0.82;0.30;;;12.20;70.10;;;;;;2364256;53;20969;-64
2021/05/05 00:30:23;;;;;;;0.68;0.30;;;12.20;70.10;;;;;;2621064;52;20994;-65
2021/05/05 00:32:50;;;;;;;1.27;0.40;;;12.10;69.90;;;;;;2371748;53;20965;-65
2021/05/05 00:35:16;;;;;;;1.98;0.70;;;12.10;69.90;;;;;;2365855;53;20948;-65
2021/05/05 00:37:44;;;;;;;1.60;0.40;;;12.10;69.70;;;;;;2372387;53;20977;-66
2021/05/05 00:40:11;;;;;;;0.82;0.50;;;12.00;69.60;;;;;;2351821;53;20920;-65
2021/05/05 00:42:37;;;;;;;1.20;0.40;;;12.00;69.60;;;;;;2352998;53;20947;-65
2021/05/05 00:45:05;;;;;;;0.98;0.43;;;12.00;69.30;;;;;;2359384;53;20936;-65
2021/05/05 00:47:32;;;;;;;1.37;0.43;;;12.00;69.20;;;;;;2365630;53;21518;-65
2021/05/05 00:49:59;;;;;;;1.48;0.50;;;11.90;69.30;;;;;;2361032;53;20938;-65
2021/05/05 00:52:25;;;;;;;2.17;0.80;;;11.80;69.30;;;;;;2372003;53;20953;-65
2021/05/05 00:54:51;;;;;;;1.10;0.45;;;11.80;69.40;;;;;;2373231;53;21001;-65
2021/05/05 00:57:18;;;;;;;0.95;0.40;;;11.80;69.40;;;;;;2350999;53;20945;-65
2021/05/05 00:59:44;;;;;;;2.05;0.65;;;11.70;69.40;;;;;;2345853;53;20940;-66
2021/05/05 01:02:10;;;;;;;1.23;0.40;;;11.70;69.60;;;;;;2356347;53;21041;-65
2021/05/05 01:04:37;;;;;;;1.55;0.40;;;11.70;69.80;;;;;;2362905;53;20995;-65
2021/05/05 01:07:05;;;;;;;1.10;0.35;;;11.60;69.80;;;;;;2348734;53;20893;-65
2021/05/05 01:09:32;;;;;;;2.28;0.50;;;11.60;70.00;;;;;;2352208;53;21090;-65
2021/05/05 01:11:58;;;;;;;1.45;0.50;;;11.60;70.00;;;;;;2351067;53;21060;-65
2021/05/05 01:14:24;;;;;;;0.93;0.40;;;11.60;70.10;;;;;;2360511;53;21452;-65
2021/05/05 01:16:56;;;;;;;2.65;0.50;;;11.60;70.00;;;;;;2364202;53;20922;-66
2021/05/05 01:19:23;;;;;;;1.73;0.60;;;11.60;70.00;;;;;;2373351;53;20941;-65
2021/05/05 01:21:49;;;;;;;2.22;1.05;;;11.50;70.00;;;;;;2347485;53;20938;-65
2021/05/05 01:24:16;;;;;;;1.52;0.52;;;11.50;70.10;;;;;;2602243;52;20987;-65
2021/05/05 01:26:54;;;;;;;1.30;0.40;;;11.50;70.10;;;;;;2368180;53;20977;-65
2021/05/05 01:29:21;;;;;;;1.12;0.40;;;11.50;69.90;;;;;;2622349;52;21459;-66
2021/05/05 01:31:47;;;;;;;3.25;0.50;;;11.50;69.90;;;;;;2373117;53;20922;-65
2021/05/05 01:34:13;;;;;;;1.37;0.40;;;11.40;69.80;;;;;;2584343;52;20993;-65
2021/05/05 01:36:40;;;;;;;1.37;0.30;;;11.40;69.70;;;;;;2358444;53;20975;-66
2021/05/05 01:39:16;;;;;;;0.85;0.28;;;11.40;70.60;;;;;;2329374;54;20946;-66
2021/05/05 01:41:43;;;;;;;1.52;0.40;;;11.30;69.80;;;;;;2364901;53;20954;-66
2021/05/05 01:44:35;;;;;;;2.22;0.60;;;11.30;70.00;;;;;;2359985;53;20934;-66
2021/05/05 01:47:03;;;;;;;1.50;0.45;;;11.30;69.90;;;;;;2351794;53;21038;-64
2021/05/05 01:49:29;;;;;;;2.50;0.43;;;11.20;69.90;;;;;;2372231;53;21045;-65
2021/05/05 01:52:00;;;;;;;1.25;0.45;;;11.20;69.90;;;;;;2624342;52;21089;-65
2021/05/05 01:54:26;;;;;;;3.62;0.50;;;11.20;70.10;;;;;;2604911;52;21856;-66
2021/05/05 01:56:53;;;;;;;2.20;0.47;;;11.20;70.10;;;;;;2342550;54;20968;-65
2021/05/05 01:59:21;;;;;;;2.17;0.47;;;11.10;70.10;;;;;;2372291;53;20990;-66
2021/05/05 02:01:56;;;;;;;1.30;0.40;;;11.10;70.10;;;;;;2370935;53;21904;-67
2021/05/05 02:04:22;;;;;;;2.60;0.50;;;11.10;70.00;;;;;;2608268;52;21017;-66
2021/05/05 02:06:49;;;;;;;2.05;0.60;;;11.10;70.10;;;;;;2362981;53;21045;-66
2021/05/05 02:09:15;;;;;;;1.62;0.60;;;11.10;69.90;;;;;;2361791;53;20946;-66
2021/05/05 02:11:41;;;;;;;1.17;0.40;;;11.00;69.90;;;;;;2359655;53;20992;-66
2021/05/05 02:14:08;;;;;;;2.55;0.70;;;11.00;70.00;;;;;;2428336;52;20985;-66
2021/05/05 02:16:37;;;;;;;3.47;0.60;;;11.00;69.90;;;;;;2625615;52;20986;-66
2021/05/05 02:19:34;;;;;;;1.92;0.60;;;11.00;70.00;;;;;;2506365;52;21002;-67
2021/05/05 02:22:01;;;;;;;2.17;0.60;;;11.00;69.80;;;;;;2372093;53;21837;-66
2021/05/05 02:24:27;;;;;;;1.95;0.52;;;10.90;69.90;;;;;;2596299;52;20950;-66
2021/05/05 02:26:53;;;;;;;1.87;0.52;;;10.90;69.80;;;;;;2357902;54;21031;-66
2021/05/05 02:29:20;;;;;;;1.08;0.50;;;10.90;69.90;;;;;;2348379;53;21021;-66
2021/05/05 02:31:47;;;;;;;1.70;0.45;;;10.80;70.00;;;;;;2348148;53;20906;-66
2021/05/05 02:34:13;;;;;;;1.58;0.50;;;10.80;70.30;;;;;;2368951;53;20921;-66
2021/05/05 02:36:40;;;;;;;2.42;0.60;;;10.80;70.60;;;;;;2625029;52;21388;-66
2021/05/05 02:39:14;;;;;;;2.42;0.68;;;10.80;70.70;;;;;;2376031;53;21058;-66
2021/05/05 02:41:40;;;;;;;1.33;0.57;;;10.70;70.70;;;;;;2352702;54;21003;-66
2021/05/05 02:44:07;;;;;;;1.27;0.57;;;10.80;70.90;;;;;;2359041;53;20920;-66
2021/05/05 02:46:34;;;;;;;2.78;0.70;;;10.80;70.90;;;;;;2359940;53;21031;-66
2021/05/05 02:49:01;;;;;;;2.45;0.80;;;10.70;70.70;;;;;;2467644;53;20989;-66
2021/05/05 02:51:27;;;;;;;1.92;0.52;;;10.70;70.70;;;;;;2371217;53;21446;-66
2021/05/05 02:54:43;;;;;;;3.83;0.47;;;10.70;70.70;;;;;;2625509;52;20953;-66
2021/05/05 02:57:09;;;;;;;2.97;0.73;;;10.70;70.70;;;;;;2352422;53;20922;-66
2021/05/05 02:59:37;;;;;;;2.87;0.45;;;10.70;70.70;;;;;;2349370;53;22295;-65
2021/05/05 03:02:03;;;;;;;3.25;0.40;;;10.60;70.70;;;;;;2357194;53;21117;-65
2021/05/05 03:04:29;;;;;;;1.12;0.40;;;10.60;70.70;;;;;;2352277;53;20946;-65
2021/05/05 03:06:55;;;;;;;0.95;0.40;;;10.60;70.70;;;;;;2372177;53;20953;-65
2021/05/05 03:09:24;;;;;;;4.43;0.57;;;10.60;70.80;;;;;;2375544;53;21913;-66
2021/05/05 03:11:52;;;;;;;1.35;0.40;;;10.60;70.90;;;;;;2349622;53;21012;-65
2021/05/05 03:14:19;;;;;;;1.10;0.40;;;10.60;71.10;;;;;;2348049;53;20997;-66
2021/05/05 03:17:03;;;;;;;0.77;0.30;;;10.60;71.20;;;;;;2604765;52;21363;-65
2021/05/05 03:19:29;;;;;;;0.93;0.32;;;10.60;71.30;;;;;;2352866;53;20967;-66
2021/05/05 03:21:56;;;;;;;1.35;0.45;;;10.60;71.50;;;;;;2359743;53;20952;-66
2021/05/05 03:24:22;;;;;;;0.80;0.40;;;10.60;71.50;;;;;;2349815;53;20938;-65
2021/05/05 03:26:48;;;;;;;1.58;0.40;;;10.60;71.50;;;;;;2351837;53;20973;-66
2021/05/05 03:29:16;;;;;;;1.35;0.40;;;10.60;71.40;;;;;;2599529;52;20986;-65
2021/05/05 03:31:43;;;;;;;1.45;0.52;;;10.60;71.30;;;;;;2370202;54;20943;-65
2021/05/05 03:34:42;;;;;;;1.17;0.50;;;10.60;71.30;;;;;;2362943;53;20935;-66
2021/05/05 03:37:09;;;;;;;1.62;0.32;;;10.60;71.20;;;;;;2379671;52;20946;-65
2021/05/05 03:39:54;;;;;;;1.65;0.45;;;10.60;71.40;;;;;;2436292;52;20965;-65
2021/05/05 03:42:20;;;;;;;0.73;0.40;;;10.60;71.50;;;;;;2370975;53;20940;-66
2021/05/05 03:44:47;;;;;;;1.25;0.47;;;10.60;71.70;;;;;;2369182;52;20910;-66
2021/05/05 03:47:13;;;;;;;0.77;0.40;;;10.60;71.60;;;;;;2372401;54;20966;-66
2021/05/05 03:49:40;;;;;;;2.45;0.68;;;10.60;71.70;;;;;;2360095;53;20951;-66
2021/05/05 03:52:24;;;;;;;2.20;0.50;;;10.60;72.40;;;;;;2364167;53;20930;-65
2021/05/05 03:54:50;;;;;;;2.60;0.50;;;10.60;71.50;;;;;;2369955;54;20970;-65
2021/05/05 03:57:23;;;;;;;0.68;0.32;;;10.60;71.60;;;;;;2371933;53;20986;-66
2021/05/05 03:59:49;;;;;;;1.00;0.40;;;10.60;71.60;;;;;;2389994;53;21034;-65
2021/05/05 04:02:22;;;;;;;1.58;0.60;;;10.60;71.70;;;;;;2334119;54;20968;-65
2021/05/05 04:04:49;;;;;;;1.08;0.40;;;10.60;71.80;;;;;;2625101;52;21005;-66
2021/05/05 04:07:15;;;;;;;0.90;0.40;;;10.60;71.90;;;;;;2371990;53;20927;-65
2021/05/05 04:09:45;;;;;;;0.70;0.40;;;10.60;72.00;;;;;;2363779;53;21496;-66
2021/05/05 04:12:11;;;;;;;1.85;0.50;;;10.60;72.00;;;;;;2350751;53;20945;-67
2021/05/05 04:14:38;;;;;;;1.92;0.50;;;10.60;71.90;;;;;;2338210;54;21605;-65
2021/05/05 04:17:22;;;;;;;2.25;0.50;;;10.70;72.10;;;;;;2348290;53;21015;-65
2021/05/05 04:20:39;;;;;;;0.95;0.43;;;10.70;72.00;;;;;;2592576;52;20996;-65
2021/05/05 04:23:24;;;;;;;1.00;0.40;;;10.70;71.80;;;;;;2354841;53;21017;-65
2021/05/05 04:26:26;;;;;;;1.80;0.50;;;10.70;71.80;;;;;;2438247;52;20998;-66
2021/05/05 04:29:07;;;;;;;1.98;0.60;;;10.70;71.70;;;;;;2323801;53;20985;-66
2021/05/05 04:31:33;;;;;;;2.05;0.80;;;10.70;71.60;;;;;;2433311;52;20952;-66
2021/05/05 04:34:00;;;;;;;1.77;0.52;;;10.70;71.70;;;;;;2346172;53;20922;-65
2021/05/05 04:36:26;;;;;;;2.53;0.90;;;10.70;71.70;;;;;;2622186;52;20934;-65
2021/05/05 04:38:55;;;;;;;2.20;0.77;;;10.70;71.70;;;;;;2363125;53;20981;-65
2021/05/05 04:41:21;;;;;;;1.15;0.50;;;10.60;71.70;;;;;;2601169;52;20957;-66
2021/05/05 04:43:47;;;;;;;1.00;0.52;;;10.60;71.80;;;;;;2343914;53;21221;-65
2021/05/05 04:46:14;;;;;;;2.60;0.70;;;10.60;71.90;;;;;;2348761;53;20934;-66
2021/05/05 04:48:40;;;;;;;4.15;0.70;;;10.60;71.80;;;;;;2364025;53;20958;-66
2021/05/05 04:51:06;;;;;;;2.95;0.85;;;10.60;71.90;;;;;;2364590;53;20944;-67
2021/05/05 04:53:32;;;;;;;1.45;0.80;;;10.60;72.60;;;;;;2359150;53;20948;-65
2021/05/05 04:55:59;;;;;;;1.98;0.70;;;10.60;71.90;;;;;;2361570;53;21010;-66
2021/05/05 04:58:25;;;;;;;2.70;0.88;;;10.60;71.90;;;;;;2364956;53;21836;-64
2021/05/05 05:00:56;;;;;;;3.20;0.95;;;10.60;72.00;;;;;;2350561;53;20946;-66
2021/05/05 05:03:23;;;;;;;3.63;1.00;;;10.60;72.10;;;;;;2350421;53;21014;-65
2021/05/05 05:05:49;;;;;;;1.67;0.77;;;10.60;72.20;;;;;;2341941;53;20944;-65
2021/05/05 05:08:15;;;;;;;1.60;0.68;;;10.60;72.20;;;;;;2342331;53;20976;-64
2021/05/05 05:10:42;;;;;;;2.25;0.80;;;10.60;72.30;;;;;;2380871;53;21536;-66
2021/05/05 05:13:22;;;;;;;2.40;0.90;;;10.60;72.40;;;;;;2341123;53;20920;-66
2021/05/05 05:15:48;;;;;;;2.60;0.80;;;10.60;72.10;;;;;;2340185;53;20924;-65
2021/05/05 05:18:15;;;;;;;1.60;0.70;;;10.60;72.30;;;;;;2340381;53;20961;-66
2021/05/05 05:20:41;;;;;;;1.83;0.75;;;10.70;72.50;;;;;;2371819;53;21521;-66
2021/05/05 05:23:07;;;;;;;3.67;0.95;;;10.70;72.40;;;;;;2328243;53;21443;-65
2021/05/05 05:25:34;;;;;;;2.10;1.00;;;10.70;72.40;;;;;;2565037;53;20952;-66
2021/05/05 05:28:15;;;;;;;3.08;1.20;;;10.70;72.40;;;;;;2583730;52;20961;-66
2021/05/05 05:30:42;;;;;;;4.72;1.30;;;10.70;72.30;;;;;;2347329;53;20968;-66
2021/05/05 05:33:08;;;;;;;4.60;1.90;;;10.70;72.40;;;;;;2320142;53;21457;-66
2021/05/05 05:35:35;;;;;;;3.25;1.50;;;10.70;72.30;;;;;;2324626;53;20984;-66
2021/05/05 05:38:01;;;;;;;3.65;1.30;;;10.70;72.10;;;;;;2325411;54;21461;-65
2021/05/05 05:40:28;;;;;;;4.18;1.40;;;10.70;71.80;;;;;;2341144;53;21016;-65
2021/05/05 05:42:54;;;;;;;3.00;1.00;;;10.70;71.70;;;;;;2353437;53;21806;-65
2021/05/05 05:45:21;;;;;;;3.03;1.05;;;10.70;71.60;;;;;;2362181;53;21708;-67
2021/05/05 05:47:47;;;;;;;3.25;1.17;;;10.70;71.60;;;;;;2342571;53;20966;-65
2021/05/05 05:50:17;;;;;;;2.90;1.02;;;10.70;71.50;;;;;;2370809;53;21001;-68
2021/05/05 05:52:43;;;;;;;3.78;1.20;;;10.70;71.40;;;;;;2349827;54;21010;-67
2021/05/05 05:55:10;;;;;;;4.07;1.17;;;10.70;71.40;;;;;;2405822;53;20990;-65
2021/05/05 05:57:37;;;;;;;4.68;1.45;;;10.70;71.60;;;;;;2353835;53;20954;-67
2021/05/05 06:00:06;;;;;;;3.45;1.10;;;10.70;71.60;;;;;;2557203;52;20949;-67
2021/05/05 06:02:33;;;;;;;3.30;1.20;;;10.70;71.50;;;;;;2369775;53;21407;-65
2021/05/05 06:05:01;;;;;;;3.97;1.48;;;10.70;71.50;;;;;;2369777;53;20970;-65
2021/05/05 06:07:27;;;;;;;4.45;1.25;;;10.70;71.40;;;;;;2370082;53;21081;-66
2021/05/05 06:09:54;;;;;;;5.60;1.52;;;10.70;71.40;;;;;;2370147;53;20983;-65
2021/05/05 06:12:21;;;;;;;5.25;1.27;;;10.70;71.20;;;;;;2455265;52;22247;-66
2021/05/05 06:14:48;;;;;;;4.22;1.30;;;10.70;71.20;;;;;;2350736;53;21280;-65
2021/05/05 06:17:14;;;;;;;4.90;1.20;;;10.70;71.30;;;;;;2369988;53;21073;-67
2021/05/05 06:19:40;;;;;;;4.70;1.20;;;10.70;71.30;;;;;;2370154;53;20966;-65
2021/05/05 06:22:07;;;;;;;4.75;1.35;;;10.70;71.30;;;;;;2369619;53;20958;-68
2021/05/05 06:24:33;;;;;;;3.55;1.40;;;10.80;71.70;;;;;;2369882;53;20934;-66
2021/05/05 06:27:00;;;;;;;4.80;1.30;;;10.80;71.40;;;;;;2347079;53;21604;-64
2021/05/05 06:29:26;;;;;;;5.65;1.40;;;10.90;71.90;;;;;;2387723;54;21825;-66
2021/05/05 06:31:52;;;;;;;3.72;1.10;;;10.90;71.80;;;;;;2369998;53;20938;-67
2021/05/05 06:34:21;;;;;;;4.57;1.40;;;11.00;72.30;;;;;;2622738;52;20945;-65
2021/05/05 06:36:47;;;;;;;7.50;1.62;;;11.00;71.80;;;;;;2370848;53;20981;-66
2021/05/05 06:39:14;;;;;;;4.78;1.60;;;11.10;71.60;;;;;;2367340;53;20976;-65
2021/05/05 06:41:44;;;;;;;4.90;1.15;;;11.20;72.00;;;;;;2330651;54;20972;-67
2021/05/05 06:44:10;;;;;;;8.18;1.58;;;11.20;72.10;;;;;;2339853;54;21015;-66
2021/05/05 06:46:42;;;;;;;6.20;1.20;;;11.30;72.70;;;;;;2366353;53;20934;-65
2021/05/05 06:49:10;;;;;;;2.60;0.90;;;11.30;72.10;;;;;;2370742;53;21459;-66
2021/05/05 06:51:36;;;;;;;7.00;1.48;;;11.40;71.90;;;;;;2370402;53;21058;-69
2021/05/05 06:54:03;;;;;;;3.15;1.17;;;11.40;71.00;;;;;;2371598;52;21042;-64
2021/05/05 06:56:30;;;;;;;4.00;1.45;;;11.50;70.60;;;;;;2410543;52;20938;-66
2021/05/05 06:58:56;;;;;;;4.37;1.20;;;11.50;70.80;;;;;;2422826;52;20954;-65
2021/05/05 07:01:22;;;;;;;2.87;1.05;;;11.50;71.50;;;;;;2370448;53;21335;-68
2021/05/05 07:03:48;;;;;;;3.50;1.08;;;11.60;72.60;;;;;;2503666;52;20919;-66
2021/05/05 07:06:15;;;;;;;5.20;1.30;;;11.70;74.70;;;;;;2364255;53;20942;-67
2021/05/05 07:08:43;;;;;;;5.75;1.55;;;11.90;75.10;;;;;;2365310;53;20956;-67
2021/05/05 07:11:09;;;;;;;5.95;2.22;;;12.10;73.00;;;;;;2354336;53;20961;-65
2021/05/05 07:13:36;;;;;;;5.53;1.30;;;12.20;72.30;;;;;;2622703;52;21010;-66
2021/05/05 07:16:03;;;;;;;5.53;1.70;;;12.30;71.40;;;;;;2370251;53;20998;-66
2021/05/05 07:18:29;;;;;;;4.68;1.77;;;12.30;70.70;;;;;;2370024;53;20930;-66
2021/05/05 07:20:57;;;;;;;5.07;1.77;;;12.40;70.20;;;;;;2487271;52;20982;-67
2021/05/05 07:23:27;;;;;;;4.03;1.55;;;12.30;69.50;;;;;;2370078;53;20961;-65
2021/05/05 07:25:53;;;;;;;7.62;4.62;;;12.30;69.30;;;;;;2369533;53;21818;-65
2021/05/05 07:28:20;;;;;;;6.72;2.92;;;12.20;69.30;;;;;;2334331;53;20994;-64
2021/05/05 07:30:47;;;;;;;3.95;2.20;;;12.20;69.40;;;;;;2352729;53;21111;-65
2021/05/05 07:33:14;;;;;;;3.87;1.62;;;12.20;69.40;;;;;;2366843;53;20926;-67
2021/05/05 07:35:48;;;;;;;5.45;2.20;;;12.10;69.50;;;;;;2370338;53;20993;-66
2021/05/05 07:38:23;;;;;;;4.95;1.85;;;12.20;70.60;;;;;;2351991;53;20935;-66
2021/05/05 07:41:33;;;;;;;7.18;2.10;;;12.20;71.20;;;;;;2349704;53;20993;-66
2021/05/05 07:46:48;;;;;;;4.55;1.75;;;12.40;72.70;;;;;;2369917;53;21881;-68
2021/05/05 07:49:17;;;;;;;5.20;1.60;;;12.60;73.00;;;;;;2516137;52;2516464;-66
2021/05/05 07:51:46;;;;;;;6.07;1.42;;;12.70;72.90;;;;;;2622946;52;20922;-66
2021/05/05 07:54:13;;;;;;;5.47;1.48;;;12.80;72.10;;;;;;2622368;52;20938;-66
2021/05/05 07:56:39;;;;;;;4.97;1.25;;;12.80;71.40;;;;;;2523076;53;20964;-64
2021/05/05 07:59:04;;;;;;;5.43;1.70;;;12.90;70.60;;;;;;2622904;52;20934;-67
2021/05/05 08:01:34;;;;;;;6.60;1.80;;;12.90;69.60;;;;;;2350074;54;20938;-65
2021/05/05 08:04:00;;;;;;;6.87;1.48;;;12.80;68.80;;;;;;2369961;53;20933;-65
2021/05/05 08:06:28;;;;;;;3.25;1.17;;;12.80;68.50;;;;;;2569467;52;20961;-66
2021/05/05 08:08:54;;;;;;;5.37;1.42;;;12.70;68.40;;;;;;2352747;53;21079;-68
2021/05/05 08:11:23;;;;;;;5.15;1.62;;;12.70;68.30;;;;;;2357649;53;20920;-68
2021/05/05 08:13:51;;;;;;;7.20;1.52;;;12.60;67.80;;;;;;2357530;53;20964;-67
2021/05/05 08:16:18;;;;;;;4.43;1.70;;;12.50;68.40;;;;;;2599940;52;20962;-66
2021/05/05 08:18:44;;;;;;;3.58;1.42;;;12.50;68.80;;;;;;2509791;52;20962;-66
2021/05/05 08:21:11;;;;;;;3.70;1.40;;;12.50;68.60;;;;;;2370202;53;20941;-68
2021/05/05 08:23:38;;;;;;;3.03;1.27;;;12.40;68.90;;;;;;2370192;53;21527;-68
2021/05/05 08:26:05;;;;;;;7.15;1.62;;;12.40;69.70;;;;;;2370128;53;20901;-65
2021/05/05 08:28:31;;;;;;;4.35;1.20;;;12.40;70.70;;;;;;2370236;53;20950;-66
2021/05/05 08:30:58;;;;;;;6.03;1.50;;;12.50;71.30;;;;;;2369597;53;20943;-68
2021/05/05 08:33:24;;;;;;;7.30;2.10;;;12.60;70.60;;;;;;2369926;53;21069;-66
2021/05/05 08:35:51;;;;;;;5.12;1.12;;;12.60;70.40;;;;;;2370443;53;20941;-66
2021/05/05 08:38:17;;;;;;;4.72;1.42;;;12.70;70.80;;;;;;2369912;53;20938;-66
2021/05/05 08:40:43;;;;;;;3.80;1.27;;;12.70;70.70;;;;;;2370320;53;20942;-68
2021/05/05 08:43:10;;;;;;;3.35;1.12;;;12.70;70.20;;;;;;2354521;53;21384;-67
2021/05/05 08:45:40;;;;;;;3.42;1.10;;;12.80;69.80;;;;;;2577045;52;21408;-66
2021/05/05 08:48:08;;;;;;;4.85;1.52;;;12.80;69.00;;;;;;2370038;53;20997;-68
2021/05/05 08:50:36;;;;;;;5.28;1.45;;;12.80;69.60;;;;;;2370088;53;21013;-67
2021/05/05 08:53:02;;;;;;;5.65;1.65;;;13.00;71.60;;;;;;2354402;53;20936;-67
2021/05/05 08:55:29;;;;;;;5.62;1.98;;;13.10;73.60;;;;;;2366248;53;21820;-65
2021/05/05 08:57:56;;;;;;;8.20;2.05;;;13.30;75.50;;;;;;2373721;53;21553;-65
2021/05/05 09:00:24;;;;;;;5.57;1.77;;;13.50;75.50;;;;;;2333006;54;21019;-68
2021/05/05 09:02:50;;;;;;;5.28;1.50;;;13.80;74.20;;;;;;2353824;53;20954;-66
2021/05/05 09:05:58;;;;;;;4.15;1.45;;;14.00;76.90;;;;;;2370274;53;21549;-66
2021/05/05 09:08:30;;;;;;;3.85;1.00;;;14.40;76.80;;;;;;2531406;52;20942;-67
2021/05/05 09:11:07;;;;;;;6.20;1.50;;;14.80;77.50;;;;;;2366229;53;21079;-65
2021/05/05 09:13:56;;;;;;;5.55;1.20;;;15.00;72.50;;;;;;2347204;53;21854;-68
2021/05/05 09:16:30;;;;;;;5.50;1.60;;;15.20;69.30;;;;;;2353246;53;21001;-70
2021/05/05 09:19:07;;;;;;;4.72;1.27;;;15.20;68.30;;;;;;2370188;53;20922;-67
2021/05/05 09:21:49;;;;;;;3.70;1.20;;;15.10;67.60;;;;;;2396577;53;21051;-65
2021/05/05 09:24:31;;;;;;;4.27;1.20;;;15.10;67.90;;;;;;2357367;53;20962;-66
2021/05/05 09:26:59;;;;;;;5.70;1.20;;;15.10;68.60;;;;;;2369704;53;21014;-65
2021/05/05 09:29:46;;;;;;;5.50;1.40;;;15.20;69.00;;;;;;2517547;52;20934;-67
2021/05/05 09:32:18;;;;;;;4.50;1.23;;;15.20;67.60;;;;;;2350591;53;20943;-68
2021/05/05 09:35:04;;;;;;;3.65;1.27;;;15.20;70.00;;;;;;2370090;53;21039;-67
2021/05/05 09:37:30;;;;;;;5.43;1.52;;;15.20;67.60;;;;;;2370184;53;21795;-69
2021/05/05 09:40:01;;;;;;;4.78;1.40;;;15.20;70.20;;;;;;2370043;53;21471;-66
2021/05/05 09:42:33;;;;;;;5.80;1.37;;;15.30;69.80;;;;;;2370081;53;20926;-66
2021/05/05 09:45:07;;;;;;;2.87;1.08;;;15.50;69.80;;;;;;2369945;53;20950;-68
2021/05/05 09:47:55;;;;;;;5.85;1.20;;;15.60;72.10;;;;;;2366852;53;20936;-68
2021/05/05 09:50:37;;;;;;;2.55;0.98;;;15.80;68.10;;;;;;2358469;53;21540;-66
2021/05/05 09:53:26;;;;;;;4.15;1.20;;;15.90;67.40;;;;;;2368474;53;21398;-66
2021/05/05 09:56:13;;;;;;;2.90;1.05;;;15.90;65.90;;;;;;2343857;53;20946;-68
2021/05/05 09:58:44;;;;;;;2.62;0.80;;;16.00;66.00;;;;;;2339942;53;20964;-67
2021/05/05 10:01:22;;;;;;;4.25;1.10;;;16.00;67.50;;;;;;2345886;53;21018;-67
2021/05/05 10:03:58;;;;;;;2.35;0.90;;;16.00;66.80;;;;;;2347401;53;20919;-67
2021/05/05 10:06:28;;;;;;;3.90;1.10;;;16.00;66.80;;;;;;2311708;55;20962;-70
2021/05/05 10:08:56;;;;;;;4.47;1.52;;;16.00;66.10;;;;;;2314822;54;21014;-69
2021/05/05 10:11:25;;;;;;;4.75;1.60;;;15.90;65.10;;;;;;2319029;55;20993;-67
2021/05/05 10:14:03;;;;;;;4.00;1.23;;;15.80;64.90;;;;;;2317719;55;21021;-66
2021/05/05 10:16:35;;;;;;;4.28;1.45;;;15.70;64.20;;;;;;2337340;54;20997;-67
2021/05/05 10:19:03;;;;;;;3.92;1.48;;;15.60;63.80;;;;;;2327853;54;21363;-68
2021/05/05 10:21:30;;;;;;;4.60;1.30;;;15.40;64.00;;;;;;2337327;54;21539;-66
2021/05/05 10:23:59;;;;;;;5.85;1.98;;;15.30;63.30;;;;;;2323836;55;20943;-69
2021/05/05 10:26:28;;;;;;;3.30;1.23;;;15.20;63.80;;;;;;2344290;54;20999;-68
2021/05/05 10:28:55;;;;;;;3.25;1.02;;;15.00;63.30;;;;;;2318936;54;21064;-69
2021/05/05 10:31:27;;;;;;;5.95;0.90;;;14.90;63.50;;;;;;2358160;53;20930;-66
2021/05/05 10:33:59;;;;;;;3.08;0.90;;;14.70;63.70;;;;;;2351053;53;21588;-66
2021/05/05 10:36:37;;;;;;;3.70;1.43;;;14.60;63.90;;;;;;2372512;53;21058;-68
2021/05/05 10:39:46;;;;;;;3.42;0.70;;;14.40;62.30;;;;;;2370413;53;21265;-67
2021/05/05 10:42:26;;;;;;;1.17;0.50;;;14.10;61.20;;;;;;2350031;53;21714;-68
2021/05/05 10:44:58;;;;;;;1.50;0.50;;;13.90;62.50;;;;;;2362767;53;21379;-65
2021/05/05 10:47:34;;;;;;;1.83;0.70;;;13.70;63.10;;;;;;2370513;53;20961;-68
2021/05/05 10:50:11;;;;;;;1.35;0.50;;;13.50;64.20;;;;;;2369669;53;21435;-66
2021/05/05 10:54:12;;;;;;;1.70;0.65;;;13.40;65.50;;;;;;2350700;53;20999;-68
2021/05/05 10:56:38;;;;;;;1.75;0.60;;;13.30;64.90;;;;;;2361040;53;21027;-67
2021/05/05 10:59:07;;;;;;;1.37;0.60;;;13.40;67.30;;;;;;2359926;53;20990;-68
2021/05/05 11:01:48;;;;;;;1.08;0.50;;;13.30;67.10;;;;;;2370032;53;20922;-69
2021/05/05 11:04:15;;;;;;;2.03;0.75;;;13.30;66.60;;;;;;2518336;52;21082;-69
2021/05/05 11:06:45;;;;;;;1.30;0.57;;;13.30;67.00;;;;;;2349181;53;20956;-70
2021/05/05 11:09:57;;;;;;;1.87;0.60;;;13.20;66.90;;;;;;2369852;53;20977;-67
2021/05/05 11:12:38;;;;;;;2.50;0.80;;;13.20;65.40;;;;;;2370512;53;21758;-68
2021/05/05 11:15:05;;;;;;;2.42;0.80;;;13.10;65.60;;;;;;2362267;53;21046;-65
2021/05/05 11:17:32;;;;;;;2.15;0.70;;;13.00;65.90;;;;;;2390568;53;21473;-66
2021/05/05 11:19:58;;;;;;;1.83;0.62;;;12.90;65.50;;;;;;2338248;54;21048;-68
2021/05/05 11:22:46;;;;;;;3.30;1.10;;;12.80;65.20;;;;;;2580630;53;20911;-65
2021/05/05 11:25:26;;;;;;;2.50;0.90;;;12.70;64.40;;;;;;2455131;52;20949;-67
2021/05/05 11:27:53;;;;;;;5.32;1.00;;;12.60;65.60;;;;;;2415983;52;20966;-67
2021/05/05 11:30:39;;;;;;;4.25;1.02;;;12.60;67.20;;;;;;2477009;52;20969;-69
2021/05/05 11:33:06;;;;;;;1.67;0.70;;;12.60;68.30;;;;;;2606617;52;21760;-68
2021/05/05 11:35:34;;;;;;;2.58;0.80;;;12.70;69.70;;;;;;2367762;53;21728;-68
2021/05/05 11:38:22;;;;;;;3.92;0.90;;;12.70;69.90;;;;;;2369648;53;20990;-67
2021/05/05 11:41:00;;;;;;;2.20;0.90;;;12.80;69.10;;;;;;2622694;52;20989;-67
2021/05/05 11:43:27;;;;;;;3.05;1.12;;;12.90;69.30;;;;;;2622913;52;20955;-66
2021/05/05 11:45:55;;;;;;;1.83;0.60;;;12.90;69.30;;;;;;2360198;53;21015;-67
2021/05/05 11:48:30;;;;;;;2.40;0.80;;;12.90;68.80;;;;;;2361587;53;21741;-66
2021/05/05 11:50:57;;;;;;;2.50;0.93;;;13.00;69.00;;;;;;2369596;53;21004;-67
2021/05/05 11:53:31;;;;;;;3.05;1.10;;;13.10;70.70;;;;;;2370227;53;20932;-67
2021/05/05 11:55:58;;;;;;;2.55;0.80;;;13.30;71.90;;;;;;2370005;53;20996;-66
2021/05/05 11:58:24;;;;;;;2.70;0.68;;;13.40;73.90;;;;;;2367496;53;20926;-66
2021/05/05 12:00:52;;;;;;;3.25;0.80;;;13.70;74.50;;;;;;2352750;53;21867;-66
2021/05/05 12:03:23;;;;;;;3.97;1.00;;;13.90;73.80;;;;;;2599288;52;20902;-66
2021/05/05 12:05:49;;;;;;;3.40;0.90;;;14.30;73.70;;;;;;2379874;53;21031;-66
2021/05/05 12:08:26;;;;;;;5.00;0.80;;;14.50;74.10;;;;;;2352862;53;21501;-66
2021/05/05 12:10:59;;;;;;;2.10;0.88;;;14.70;73.70;;;;;;2369506;53;21029;-66
2021/05/05 12:13:36;;;;;;;3.65;0.90;;;14.90;73.70;;;;;;2599819;52;21017;-67
2021/05/05 12:21:49;;;;;;;2.25;0.60;;;15.40;73.70;;;;;;2600215;52;20944;-68
2021/05/05 12:24:15;;;;;;;3.22;0.70;;;15.70;72.40;;;;;;2360692;53;21494;-66
2021/05/05 12:26:42;;;;;;;3.40;0.70;;;15.80;71.00;;;;;;2365446;53;20942;-66
2021/05/05 12:29:08;;;;;;;2.60;0.70;;;15.80;70.10;;;;;;2349077;54;20989;-66
2021/05/05 12:31:36;;;;;;;2.17;0.70;;;15.80;68.90;;;;;;2370041;53;20985;-66
2021/05/05 12:34:05;;;;;;;1.95;0.68;;;15.70;68.20;;;;;;2622275;52;21019;-68
2021/05/05 12:36:33;;;;;;;3.33;1.08;;;15.70;68.70;;;;;;2359918;53;20957;-68
2021/05/05 12:39:05;;;;;;;2.37;0.60;;;15.70;69.70;;;;;;2356831;53;20948;-67
2021/05/05 12:41:48;;;;;;;2.50;0.93;;;15.70;70.30;;;;;;2361729;53;21423;-66
2021/05/05 12:44:14;;;;;;;1.87;0.75;;;15.70;69.50;;;;;;2363749;53;20976;-67
2021/05/05 12:50:15;;;;;;;2.80;0.77;;;15.90;70.70;;;;;;2344972;53;20962;-68
2021/05/05 12:52:50;;;;;;;2.67;0.90;;;16.00;71.30;;;;;;2353299;53;20962;-68
2021/05/05 12:55:27;;;;;;;4.45;0.95;;;16.20;69.70;;;;;;2540085;52;20983;-67
2021/05/05 12:58:16;;;;;;;2.08;0.80;;;16.20;69.00;;;;;;2347015;53;20921;-67
2021/05/05 13:00:48;;;;;;;3.65;0.95;;;16.30;69.10;;;;;;2366640;53;20926;-67
2021/05/05 13:03:26;;;;;;;3.30;1.05;;;16.50;70.30;;;;;;2370391;53;21013;-67
2021/05/05 13:06:04;;;;;;;2.72;0.80;;;16.60;69.70;;;;;;2365506;53;21020;-68
2021/05/05 13:08:51;;;;;;;2.15;0.80;;;16.70;69.10;;;;;;2319225;54;21045;-66
2021/05/05 13:11:30;;;;;;;1.85;0.70;;;16.70;68.10;;;;;;2338923;53;20932;-67
2021/05/05 13:14:23;;;;;;;3.05;0.88;;;16.80;67.50;;;;;;2336558;53;20932;-67
2021/05/05 13:17:56;;;;;;;2.25;0.98;;;16.70;68.50;;;;;;2338806;54;21492;-66
2021/05/05 13:20:45;;;;;;;3.33;0.93;;;16.70;65.60;;;;;;2341541;53;21062;-66